sensor_id;sensor_type;location;lat;lon;timestamp;temperature;humidity
28614;DHT22;15806;53.548;9.964;2022-08-19T00:01:42;21.30;99.90
28614;DHT22;15806;53.548;9.964;2022-08-19T00:03:22;21.30;99.90
28614;DHT22;15806;53.548;9.964;2022-08-19T00:05:03;21.30;99.90
28614;DHT22;15806;53.548;9.964;2022-08-19T00:06:46;21.30;99.90
28614;DHT22;15806;53.548;9.964;2022-08-19T00:08:26;21.20;99.90
28614;DHT22;15806;53.548;9.964;2022-08-19T00:10:07;21.30;99.90
28614;DHT22;15806;53.548;9.964;2022-08-19T00:11:48;21.30;99.90
28614;DHT22;15806;53.548;9.964;2022-08-19T00:13:29;21.30;99.90
28614;DHT22;15806;53.548;9.964;2022-08-19T00:15:12;21.30;99.90
28614;DHT22;15806;53.548;9.964;2022-08-19T00:16:53;21.30;99.90
28614;DHT22;15806;53.548;9.964;2022-08-19T00:18:34;21.30;99.90
28614;DHT22;15806;53.548;9.964;2022-08-19T00:20:18;21.30;99.90
28614;DHT22;15806;53.548;9.964;2022-08-19T00:22:01;21.30;99.90
28614;DHT22;15806;53.548;9.964;2022-08-19T00:23:42;21.20;99.90
28614;DHT22;15806;53.548;9.964;2022-08-19T00:25:23;21.30;99.90
28614;DHT22;15806;53.548;9.964;2022-08-19T00:27:04;21.30;99.90
28614;DHT22;15806;53.548;9.964;2022-08-19T00:28:44;21.30;99.90
28614;DHT22;15806;53.548;9.964;2022-08-19T00:30:26;21.30;99.90
28614;DHT22;15806;53.548;9.964;2022-08-19T00:32:06;21.30;99.90
28614;DHT22;15806;53.548;9.964;2022-08-19T00:33:47;21.30;99.90
28614;DHT22;15806;53.548;9.964;2022-08-19T00:35:28;21.30;99.90
28614;DHT22;15806;53.548;9.964;2022-08-19T00:37:09;21.30;99.90
28614;DHT22;15806;53.548;9.964;2022-08-19T00:38:49;21.30;99.90
28614;DHT22;15806;53.548;9.964;2022-08-19T00:40:30;21.30;99.90
28614;DHT22;15806;53.548;9.964;2022-08-19T00:42:11;21.30;99.90
28614;DHT22;15806;53.548;9.964;2022-08-19T00:44:04;21.30;99.90
28614;DHT22;15806;53.548;9.964;2022-08-19T00:45:46;21.30;99.90
28614;DHT22;15806;53.548;9.964;2022-08-19T00:47:26;21.30;99.90
28614;DHT22;15806;53.548;9.964;2022-08-19T00:49:19;21.40;99.90
28614;DHT22;15806;53.548;9.964;2022-08-19T00:51:01;21.40;99.90
28614;DHT22;15806;53.548;9.964;2022-08-19T00:52:45;21.40;99.90
28614;DHT22;15806;53.548;9.964;2022-08-19T00:54:26;21.30;99.90
28614;DHT22;15806;53.548;9.964;2022-08-19T00:56:07;21.40;99.90
28614;DHT22;15806;53.548;9.964;2022-08-19T00:57:59;21.40;99.90
28614;DHT22;15806;53.548;9.964;2022-08-19T00:59:43;21.30;99.90
28614;DHT22;15806;53.548;9.964;2022-08-19T01:01:25;21.30;99.90
28614;DHT22;15806;53.548;9.964;2022-08-19T01:03:11;21.30;99.90
28614;DHT22;15806;53.548;9.964;2022-08-19T01:04:52;21.30;99.90
28614;DHT22;15806;53.548;9.964;2022-08-19T01:06:36;21.30;99.90
28614;DHT22;15806;53.548;9.964;2022-08-19T01:08:18;21.40;99.90
28614;DHT22;15806;53.548;9.964;2022-08-19T01:10:00;21.40;99.90
28614;DHT22;15806;53.548;9.964;2022-08-19T01:11:42;21.40;99.90
28614;DHT22;15806;53.548;9.964;2022-08-19T01:13:27;21.40;99.90
28614;DHT22;15806;53.548;9.964;2022-08-19T01:15:12;21.40;99.90
28614;DHT22;15806;53.548;9.964;2022-08-19T01:16:55;21.40;99.90
28614;DHT22;15806;53.548;9.964;2022-08-19T01:18:39;21.40;99.90
28614;DHT22;15806;53.548;9.964;2022-08-19T01:20:23;21.40;99.90
28614;DHT22;15806;53.548;9.964;2022-08-19T01:23:57;21.40;99.90
28614;DHT22;15806;53.548;9.964;2022-08-19T01:25:49;21.40;99.90
28614;DHT22;15806;53.548;9.964;2022-08-19T01:27:44;21.40;99.90
28614;DHT22;15806;53.548;9.964;2022-08-19T01:29:25;21.40;99.90
28614;DHT22;15806;53.548;9.964;2022-08-19T01:31:08;21.30;99.90
28614;DHT22;15806;53.548;9.964;2022-08-19T01:32:50;21.30;99.90
28614;DHT22;15806;53.548;9.964;2022-08-19T01:34:31;21.40;99.90
28614;DHT22;15806;53.548;9.964;2022-08-19T01:36:15;21.30;99.90
28614;DHT22;15806;53.548;9.964;2022-08-19T01:38:01;21.30;99.90
28614;DHT22;15806;53.548;9.964;2022-08-19T01:39:42;21.30;99.90
28614;DHT22;15806;53.548;9.964;2022-08-19T01:41:23;21.30;99.90
28614;DHT22;15806;53.548;9.964;2022-08-19T01:43:04;21.40;99.90
28614;DHT22;15806;53.548;9.964;2022-08-19T01:44:45;21.40;99.90
28614;DHT22;15806;53.548;9.964;2022-08-19T01:46:25;21.40;99.90
28614;DHT22;15806;53.548;9.964;2022-08-19T01:48:07;21.40;99.90
28614;DHT22;15806;53.548;9.964;2022-08-19T01:49:47;21.40;99.90
28614;DHT22;15806;53.548;9.964;2022-08-19T01:51:28;21.40;99.90
28614;DHT22;15806;53.548;9.964;2022-08-19T01:53:10;21.40;99.90
28614;DHT22;15806;53.548;9.964;2022-08-19T01:54:51;21.40;99.90
28614;DHT22;15806;53.548;9.964;2022-08-19T01:56:31;21.40;99.90
28614;DHT22;15806;53.548;9.964;2022-08-19T01:58:19;21.40;99.90
28614;DHT22;15806;53.548;9.964;2022-08-19T02:00:01;21.40;99.90
28614;DHT22;15806;53.548;9.964;2022-08-19T02:01:42;21.40;99.90
28614;DHT22;15806;53.548;9.964;2022-08-19T02:03:23;21.40;99.90
28614;DHT22;15806;53.548;9.964;2022-08-19T02:05:04;21.40;99.90
28614;DHT22;15806;53.548;9.964;2022-08-19T02:06:45;21.40;99.90
28614;DHT22;15806;53.548;9.964;2022-08-19T02:08:27;21.50;99.90
28614;DHT22;15806;53.548;9.964;2022-08-19T02:10:11;21.50;99.90
28614;DHT22;15806;53.548;9.964;2022-08-19T02:11:52;21.50;99.90
28614;DHT22;15806;53.548;9.964;2022-08-19T02:13:34;21.50;99.90
28614;DHT22;15806;53.548;9.964;2022-08-19T02:15:16;21.50;99.90
28614;DHT22;15806;53.548;9.964;2022-08-19T02:16:57;21.50;99.90
28614;DHT22;15806;53.548;9.964;2022-08-19T02:18:37;21.50;99.90
28614;DHT22;15806;53.548;9.964;2022-08-19T02:20:18;21.50;99.90
28614;DHT22;15806;53.548;9.964;2022-08-19T02:21:59;21.50;99.90
28614;DHT22;15806;53.548;9.964;2022-08-19T02:23:40;21.50;99.90
28614;DHT22;15806;53.548;9.964;2022-08-19T02:25:20;21.60;99.90
28614;DHT22;15806;53.548;9.964;2022-08-19T02:27:01;21.60;99.90
28614;DHT22;15806;53.548;9.964;2022-08-19T02:28:42;21.60;99.90
28614;DHT22;15806;53.548;9.964;2022-08-19T02:30:23;21.60;99.90
28614;DHT22;15806;53.548;9.964;2022-08-19T02:32:04;21.60;99.90
28614;DHT22;15806;53.548;9.964;2022-08-19T02:33:46;21.60;99.90
28614;DHT22;15806;53.548;9.964;2022-08-19T02:35:26;21.60;99.90
28614;DHT22;15806;53.548;9.964;2022-08-19T02:37:07;21.70;99.90
28614;DHT22;15806;53.548;9.964;2022-08-19T02:38:48;21.70;99.90
28614;DHT22;15806;53.548;9.964;2022-08-19T02:40:30;21.60;99.90
28614;DHT22;15806;53.548;9.964;2022-08-19T02:42:10;21.60;99.90
28614;DHT22;15806;53.548;9.964;2022-08-19T02:43:51;21.60;99.90
28614;DHT22;15806;53.548;9.964;2022-08-19T02:45:33;21.60;99.90
28614;DHT22;15806;53.548;9.964;2022-08-19T02:47:14;21.70;99.90
28614;DHT22;15806;53.548;9.964;2022-08-19T02:49:01;21.60;99.90
28614;DHT22;15806;53.548;9.964;2022-08-19T02:50:42;21.70;99.90
28614;DHT22;15806;53.548;9.964;2022-08-19T02:52:22;21.70;99.90
28614;DHT22;15806;53.548;9.964;2022-08-19T02:54:04;21.70;99.90
28614;DHT22;15806;53.548;9.964;2022-08-19T02:55:46;21.70;99.90
28614;DHT22;15806;53.548;9.964;2022-08-19T02:57:27;21.80;99.90
28614;DHT22;15806;53.548;9.964;2022-08-19T02:59:07;21.80;99.90
28614;DHT22;15806;53.548;9.964;2022-08-19T03:00:51;21.80;99.90
28614;DHT22;15806;53.548;9.964;2022-08-19T03:02:32;21.80;99.90
28614;DHT22;15806;53.548;9.964;2022-08-19T03:04:14;21.80;99.90
28614;DHT22;15806;53.548;9.964;2022-08-19T03:06:12;21.80;99.90
28614;DHT22;15806;53.548;9.964;2022-08-19T03:07:53;21.90;99.90
28614;DHT22;15806;53.548;9.964;2022-08-19T03:09:36;21.90;99.90
28614;DHT22;15806;53.548;9.964;2022-08-19T03:11:28;21.90;99.90
28614;DHT22;15806;53.548;9.964;2022-08-19T03:13:10;21.90;99.90
28614;DHT22;15806;53.548;9.964;2022-08-19T03:14:51;21.90;99.90
28614;DHT22;15806;53.548;9.964;2022-08-19T03:16:33;21.90;99.90
28614;DHT22;15806;53.548;9.964;2022-08-19T03:18:14;21.90;99.90
28614;DHT22;15806;53.548;9.964;2022-08-19T03:19:55;21.90;99.90
28614;DHT22;15806;53.548;9.964;2022-08-19T03:21:36;22.00;99.90
28614;DHT22;15806;53.548;9.964;2022-08-19T03:23:16;22.00;99.90
28614;DHT22;15806;53.548;9.964;2022-08-19T03:24:57;22.00;99.90
28614;DHT22;15806;53.548;9.964;2022-08-19T03:26:40;22.00;99.90
28614;DHT22;15806;53.548;9.964;2022-08-19T03:28:21;22.00;99.90
28614;DHT22;15806;53.548;9.964;2022-08-19T03:30:02;22.00;99.90
28614;DHT22;15806;53.548;9.964;2022-08-19T03:31:44;22.00;99.90
28614;DHT22;15806;53.548;9.964;2022-08-19T03:33:25;22.00;99.90
28614;DHT22;15806;53.548;9.964;2022-08-19T03:35:06;22.00;99.90
28614;DHT22;15806;53.548;9.964;2022-08-19T03:36:47;22.00;99.90
28614;DHT22;15806;53.548;9.964;2022-08-19T03:38:28;22.00;99.90
28614;DHT22;15806;53.548;9.964;2022-08-19T03:40:09;22.10;99.90
28614;DHT22;15806;53.548;9.964;2022-08-19T03:41:51;22.10;99.90
28614;DHT22;15806;53.548;9.964;2022-08-19T03:43:37;22.10;99.90
28614;DHT22;15806;53.548;9.964;2022-08-19T03:45:20;22.10;99.90
28614;DHT22;15806;53.548;9.964;2022-08-19T03:47:01;22.10;99.90
28614;DHT22;15806;53.548;9.964;2022-08-19T03:48:43;22.10;99.90
28614;DHT22;15806;53.548;9.964;2022-08-19T03:50:24;22.20;99.90
28614;DHT22;15806;53.548;9.964;2022-08-19T03:52:05;22.20;99.90
28614;DHT22;15806;53.548;9.964;2022-08-19T03:53:46;22.20;99.90
28614;DHT22;15806;53.548;9.964;2022-08-19T03:55:27;22.20;99.90
28614;DHT22;15806;53.548;9.964;2022-08-19T03:57:07;22.30;99.90
28614;DHT22;15806;53.548;9.964;2022-08-19T03:58:48;22.30;99.90
28614;DHT22;15806;53.548;9.964;2022-08-19T04:00:28;22.30;99.90
28614;DHT22;15806;53.548;9.964;2022-08-19T04:02:11;22.20;99.90
28614;DHT22;15806;53.548;9.964;2022-08-19T04:03:52;22.20;99.90
28614;DHT22;15806;53.548;9.964;2022-08-19T04:05:33;22.20;99.90
28614;DHT22;15806;53.548;9.964;2022-08-19T04:07:14;22.20;99.90
28614;DHT22;15806;53.548;9.964;2022-08-19T04:08:56;22.30;99.90
28614;DHT22;15806;53.548;9.964;2022-08-19T04:10:37;22.30;99.90
28614;DHT22;15806;53.548;9.964;2022-08-19T04:12:18;22.30;99.90
28614;DHT22;15806;53.548;9.964;2022-08-19T04:13:59;22.30;99.90
28614;DHT22;15806;53.548;9.964;2022-08-19T04:15:41;22.30;99.90
28614;DHT22;15806;53.548;9.964;2022-08-19T04:17:22;22.40;99.90
28614;DHT22;15806;53.548;9.964;2022-08-19T04:19:05;22.40;99.90
28614;DHT22;15806;53.548;9.964;2022-08-19T04:20:46;22.40;99.90
28614;DHT22;15806;53.548;9.964;2022-08-19T04:22:27;22.40;99.90
28614;DHT22;15806;53.548;9.964;2022-08-19T04:24:09;22.40;99.90
28614;DHT22;15806;53.548;9.964;2022-08-19T04:25:50;22.40;99.90
28614;DHT22;15806;53.548;9.964;2022-08-19T04:27:30;22.40;99.90
28614;DHT22;15806;53.548;9.964;2022-08-19T04:29:23;22.40;99.90
28614;DHT22;15806;53.548;9.964;2022-08-19T04:31:04;22.40;99.90
28614;DHT22;15806;53.548;9.964;2022-08-19T04:32:44;22.40;99.90
28614;DHT22;15806;53.548;9.964;2022-08-19T04:34:27;22.40;99.90
28614;DHT22;15806;53.548;9.964;2022-08-19T04:36:15;22.40;99.90
28614;DHT22;15806;53.548;9.964;2022-08-19T04:37:55;22.40;99.90
28614;DHT22;15806;53.548;9.964;2022-08-19T04:39:36;22.40;99.90
28614;DHT22;15806;53.548;9.964;2022-08-19T04:41:16;22.40;99.90
28614;DHT22;15806;53.548;9.964;2022-08-19T04:42:57;22.40;99.90
28614;DHT22;15806;53.548;9.964;2022-08-19T04:44:37;22.40;99.90
28614;DHT22;15806;53.548;9.964;2022-08-19T04:46:18;22.40;99.90
28614;DHT22;15806;53.548;9.964;2022-08-19T04:47:58;22.40;99.90
28614;DHT22;15806;53.548;9.964;2022-08-19T04:49:39;22.30;99.90
28614;DHT22;15806;53.548;9.964;2022-08-19T04:51:19;22.30;99.90
28614;DHT22;15806;53.548;9.964;2022-08-19T04:53:00;22.30;99.90
28614;DHT22;15806;53.548;9.964;2022-08-19T04:54:40;22.30;99.90
28614;DHT22;15806;53.548;9.964;2022-08-19T04:56:21;22.30;99.90
28614;DHT22;15806;53.548;9.964;2022-08-19T04:58:02;22.20;99.90
28614;DHT22;15806;53.548;9.964;2022-08-19T04:59:42;22.20;99.90
28614;DHT22;15806;53.548;9.964;2022-08-19T05:01:26;22.20;99.90
28614;DHT22;15806;53.548;9.964;2022-08-19T05:03:07;22.20;99.90
28614;DHT22;15806;53.548;9.964;2022-08-19T05:04:48;22.20;99.90
28614;DHT22;15806;53.548;9.964;2022-08-19T05:06:28;22.20;99.90
28614;DHT22;15806;53.548;9.964;2022-08-19T05:08:09;22.20;99.90
28614;DHT22;15806;53.548;9.964;2022-08-19T05:09:50;22.30;99.90
28614;DHT22;15806;53.548;9.964;2022-08-19T05:11:33;22.20;99.90
28614;DHT22;15806;53.548;9.964;2022-08-19T05:13:16;22.30;99.90
28614;DHT22;15806;53.548;9.964;2022-08-19T05:15:00;22.30;99.90
28614;DHT22;15806;53.548;9.964;2022-08-19T05:16:42;22.30;99.90
28614;DHT22;15806;53.548;9.964;2022-08-19T05:18:22;22.40;99.90
28614;DHT22;15806;53.548;9.964;2022-08-19T05:20:05;22.40;99.90
28614;DHT22;15806;53.548;9.964;2022-08-19T05:21:46;22.30;99.90
28614;DHT22;15806;53.548;9.964;2022-08-19T05:23:27;22.40;99.90
28614;DHT22;15806;53.548;9.964;2022-08-19T05:25:12;22.40;99.90
28614;DHT22;15806;53.548;9.964;2022-08-19T05:26:54;22.40;99.90
28614;DHT22;15806;53.548;9.964;2022-08-19T05:28:34;22.50;99.90
28614;DHT22;15806;53.548;9.964;2022-08-19T05:30:16;22.40;99.90
28614;DHT22;15806;53.548;9.964;2022-08-19T05:31:57;22.50;99.90
28614;DHT22;15806;53.548;9.964;2022-08-19T05:33:38;22.50;99.90
28614;DHT22;15806;53.548;9.964;2022-08-19T05:35:18;22.40;99.90
28614;DHT22;15806;53.548;9.964;2022-08-19T05:37:01;22.40;99.90
28614;DHT22;15806;53.548;9.964;2022-08-19T05:38:42;22.40;99.90
28614;DHT22;15806;53.548;9.964;2022-08-19T05:40:22;22.50;99.90
28614;DHT22;15806;53.548;9.964;2022-08-19T05:42:06;22.50;99.90
28614;DHT22;15806;53.548;9.964;2022-08-19T05:43:47;22.50;99.90
28614;DHT22;15806;53.548;9.964;2022-08-19T05:45:27;22.50;99.90
28614;DHT22;15806;53.548;9.964;2022-08-19T05:47:08;22.50;99.90
28614;DHT22;15806;53.548;9.964;2022-08-19T05:48:49;22.50;99.90
28614;DHT22;15806;53.548;9.964;2022-08-19T05:50:29;22.50;99.90
28614;DHT22;15806;53.548;9.964;2022-08-19T05:52:13;22.50;99.90
28614;DHT22;15806;53.548;9.964;2022-08-19T05:53:53;22.50;99.90
28614;DHT22;15806;53.548;9.964;2022-08-19T05:55:35;22.50;99.90
28614;DHT22;15806;53.548;9.964;2022-08-19T05:57:15;22.50;99.90
28614;DHT22;15806;53.548;9.964;2022-08-19T05:58:57;22.50;99.90
28614;DHT22;15806;53.548;9.964;2022-08-19T06:00:38;22.50;99.90
28614;DHT22;15806;53.548;9.964;2022-08-19T06:02:18;22.50;99.90
28614;DHT22;15806;53.548;9.964;2022-08-19T06:03:59;22.50;99.90
28614;DHT22;15806;53.548;9.964;2022-08-19T06:05:41;22.50;99.90
28614;DHT22;15806;53.548;9.964;2022-08-19T06:07:21;22.50;99.90
28614;DHT22;15806;53.548;9.964;2022-08-19T06:09:04;22.30;99.90
28614;DHT22;15806;53.548;9.964;2022-08-19T06:10:45;22.30;99.90
28614;DHT22;15806;53.548;9.964;2022-08-19T06:12:26;22.40;99.90
28614;DHT22;15806;53.548;9.964;2022-08-19T06:14:13;22.40;99.90
28614;DHT22;15806;53.548;9.964;2022-08-19T06:15:54;22.40;99.90
28614;DHT22;15806;53.548;9.964;2022-08-19T06:17:34;22.40;99.90
28614;DHT22;15806;53.548;9.964;2022-08-19T06:19:17;22.40;99.90
28614;DHT22;15806;53.548;9.964;2022-08-19T06:20:58;22.40;99.90
28614;DHT22;15806;53.548;9.964;2022-08-19T06:22:44;22.30;99.90
28614;DHT22;15806;53.548;9.964;2022-08-19T06:24:27;22.40;99.90
28614;DHT22;15806;53.548;9.964;2022-08-19T06:26:12;22.30;99.90
28614;DHT22;15806;53.548;9.964;2022-08-19T06:27:52;22.40;99.90
28614;DHT22;15806;53.548;9.964;2022-08-19T06:29:33;22.40;99.90
28614;DHT22;15806;53.548;9.964;2022-08-19T06:31:16;22.40;99.90
28614;DHT22;15806;53.548;9.964;2022-08-19T06:32:56;22.40;99.90
28614;DHT22;15806;53.548;9.964;2022-08-19T06:34:37;22.40;99.90
28614;DHT22;15806;53.548;9.964;2022-08-19T06:36:21;22.40;99.90
28614;DHT22;15806;53.548;9.964;2022-08-19T06:38:02;22.40;99.90
28614;DHT22;15806;53.548;9.964;2022-08-19T06:39:44;22.30;99.90
28614;DHT22;15806;53.548;9.964;2022-08-19T06:41:26;22.30;99.90
28614;DHT22;15806;53.548;9.964;2022-08-19T06:43:06;22.30;99.90
28614;DHT22;15806;53.548;9.964;2022-08-19T06:44:47;22.30;99.90
28614;DHT22;15806;53.548;9.964;2022-08-19T06:46:28;22.30;99.90
28614;DHT22;15806;53.548;9.964;2022-08-19T06:48:09;22.30;99.90
28614;DHT22;15806;53.548;9.964;2022-08-19T06:49:49;22.30;99.90
28614;DHT22;15806;53.548;9.964;2022-08-19T06:51:30;22.30;99.90
28614;DHT22;15806;53.548;9.964;2022-08-19T06:53:10;22.30;99.90
28614;DHT22;15806;53.548;9.964;2022-08-19T06:54:51;22.30;99.90
28614;DHT22;15806;53.548;9.964;2022-08-19T06:56:32;22.30;99.90
28614;DHT22;15806;53.548;9.964;2022-08-19T06:58:12;22.30;99.90
28614;DHT22;15806;53.548;9.964;2022-08-19T06:59:53;22.20;99.90
28614;DHT22;15806;53.548;9.964;2022-08-19T07:01:38;22.20;99.90
28614;DHT22;15806;53.548;9.964;2022-08-19T07:03:19;22.20;99.90
28614;DHT22;15806;53.548;9.964;2022-08-19T07:04:59;22.20;99.90
28614;DHT22;15806;53.548;9.964;2022-08-19T07:06:40;22.20;99.90
28614;DHT22;15806;53.548;9.964;2022-08-19T07:08:20;22.20;99.90
28614;DHT22;15806;53.548;9.964;2022-08-19T07:10:02;22.20;99.90
28614;DHT22;15806;53.548;9.964;2022-08-19T07:11:48;22.20;99.90
28614;DHT22;15806;53.548;9.964;2022-08-19T07:13:29;22.20;99.90
28614;DHT22;15806;53.548;9.964;2022-08-19T07:15:10;22.10;99.90
28614;DHT22;15806;53.548;9.964;2022-08-19T07:16:51;22.20;99.90
28614;DHT22;15806;53.548;9.964;2022-08-19T07:18:32;22.10;99.90
28614;DHT22;15806;53.548;9.964;2022-08-19T07:20:13;22.10;99.90
28614;DHT22;15806;53.548;9.964;2022-08-19T07:21:54;22.10;99.90
28614;DHT22;15806;53.548;9.964;2022-08-19T07:23:35;22.10;99.90
28614;DHT22;15806;53.548;9.964;2022-08-19T07:25:15;22.10;99.90
28614;DHT22;15806;53.548;9.964;2022-08-19T07:26:58;22.20;99.90
28614;DHT22;15806;53.548;9.964;2022-08-19T07:28:39;22.20;99.90
28614;DHT22;15806;53.548;9.964;2022-08-19T07:30:20;22.30;99.90
28614;DHT22;15806;53.548;9.964;2022-08-19T07:32:02;22.30;99.90
28614;DHT22;15806;53.548;9.964;2022-08-19T07:33:42;22.20;99.90
28614;DHT22;15806;53.548;9.964;2022-08-19T07:35:23;22.30;99.90
28614;DHT22;15806;53.548;9.964;2022-08-19T07:37:05;22.30;99.90
28614;DHT22;15806;53.548;9.964;2022-08-19T07:38:48;22.20;99.90
28614;DHT22;15806;53.548;9.964;2022-08-19T07:40:30;22.10;99.90
28614;DHT22;15806;53.548;9.964;2022-08-19T07:42:11;22.10;99.90
28614;DHT22;15806;53.548;9.964;2022-08-19T07:43:52;22.00;99.90
28614;DHT22;15806;53.548;9.964;2022-08-19T07:45:32;22.00;99.90
28614;DHT22;15806;53.548;9.964;2022-08-19T07:47:13;21.90;99.90
28614;DHT22;15806;53.548;9.964;2022-08-19T07:48:53;21.90;99.90
28614;DHT22;15806;53.548;9.964;2022-08-19T07:50:34;21.80;99.90
28614;DHT22;15806;53.548;9.964;2022-08-19T07:52:14;21.80;99.90
28614;DHT22;15806;53.548;9.964;2022-08-19T07:53:55;21.80;99.90
28614;DHT22;15806;53.548;9.964;2022-08-19T07:55:36;21.70;99.90
28614;DHT22;15806;53.548;9.964;2022-08-19T07:57:16;21.60;99.90
28614;DHT22;15806;53.548;9.964;2022-08-19T07:58:57;21.60;99.90
28614;DHT22;15806;53.548;9.964;2022-08-19T08:00:38;21.60;99.90
28614;DHT22;15806;53.548;9.964;2022-08-19T08:02:18;21.50;99.90
28614;DHT22;15806;53.548;9.964;2022-08-19T08:03:59;21.50;99.90
28614;DHT22;15806;53.548;9.964;2022-08-19T08:05:39;21.50;99.90
28614;DHT22;15806;53.548;9.964;2022-08-19T08:07:20;21.50;99.90
28614;DHT22;15806;53.548;9.964;2022-08-19T08:09:03;21.50;99.90
28614;DHT22;15806;53.548;9.964;2022-08-19T08:10:44;21.50;99.90
28614;DHT22;15806;53.548;9.964;2022-08-19T08:12:29;21.50;99.90
28614;DHT22;15806;53.548;9.964;2022-08-19T08:14:10;21.40;99.90
28614;DHT22;15806;53.548;9.964;2022-08-19T08:15:51;21.40;99.90
28614;DHT22;15806;53.548;9.964;2022-08-19T08:17:31;21.40;99.90
28614;DHT22;15806;53.548;9.964;2022-08-19T08:19:13;21.40;99.90
28614;DHT22;15806;53.548;9.964;2022-08-19T08:20:55;21.50;99.90
28614;DHT22;15806;53.548;9.964;2022-08-19T08:22:36;21.50;99.90
28614;DHT22;15806;53.548;9.964;2022-08-19T08:24:17;21.50;99.90
28614;DHT22;15806;53.548;9.964;2022-08-19T08:25:58;21.50;99.90
28614;DHT22;15806;53.548;9.964;2022-08-19T08:27:41;21.40;99.90
28614;DHT22;15806;53.548;9.964;2022-08-19T08:29:21;21.40;99.90
28614;DHT22;15806;53.548;9.964;2022-08-19T08:31:02;21.40;99.90
28614;DHT22;15806;53.548;9.964;2022-08-19T08:32:43;21.40;99.90
28614;DHT22;15806;53.548;9.964;2022-08-19T08:34:23;21.40;99.90
28614;DHT22;15806;53.548;9.964;2022-08-19T08:36:08;21.50;99.90
28614;DHT22;15806;53.548;9.964;2022-08-19T08:37:50;21.50;99.90
28614;DHT22;15806;53.548;9.964;2022-08-19T08:39:31;21.50;99.90
28614;DHT22;15806;53.548;9.964;2022-08-19T08:43:29;21.50;99.90
28614;DHT22;15806;53.548;9.964;2022-08-19T08:45:13;21.60;99.90
28614;DHT22;15806;53.548;9.964;2022-08-19T08:47:01;21.60;99.90
28614;DHT22;15806;53.548;9.964;2022-08-19T08:50:37;21.60;99.90
28614;DHT22;15806;53.548;9.964;2022-08-19T08:52:22;21.60;99.90
28614;DHT22;15806;53.548;9.964;2022-08-19T08:54:06;21.60;99.90
28614;DHT22;15806;53.548;9.964;2022-08-19T08:55:47;21.60;99.90
28614;DHT22;15806;53.548;9.964;2022-08-19T08:57:36;21.60;99.90
28614;DHT22;15806;53.548;9.964;2022-08-19T08:59:36;21.50;99.90
28614;DHT22;15806;53.548;9.964;2022-08-19T09:01:17;21.50;99.90
28614;DHT22;15806;53.548;9.964;2022-08-19T09:02:59;21.60;99.90
28614;DHT22;15806;53.548;9.964;2022-08-19T09:04:40;21.60;99.90
28614;DHT22;15806;53.548;9.964;2022-08-19T09:06:36;21.60;99.90
28614;DHT22;15806;53.548;9.964;2022-08-19T09:09:40;21.70;99.90
28614;DHT22;15806;53.548;9.964;2022-08-19T09:10:53;21.70;99.90
28614;DHT22;15806;53.548;9.964;2022-08-19T09:16:20;21.80;99.90
28614;DHT22;15806;53.548;9.964;2022-08-19T09:18:04;21.70;99.90
28614;DHT22;15806;53.548;9.964;2022-08-19T09:19:58;21.80;99.90
28614;DHT22;15806;53.548;9.964;2022-08-19T09:21:38;21.80;99.90
28614;DHT22;15806;53.548;9.964;2022-08-19T09:23:19;21.80;99.90
28614;DHT22;15806;53.548;9.964;2022-08-19T09:24:59;21.90;99.90
28614;DHT22;15806;53.548;9.964;2022-08-19T09:26:40;21.90;99.90
28614;DHT22;15806;53.548;9.964;2022-08-19T09:28:20;21.90;99.90
28614;DHT22;15806;53.548;9.964;2022-08-19T09:30:01;21.90;99.90
28614;DHT22;15806;53.548;9.964;2022-08-19T09:31:42;21.90;99.90
28614;DHT22;15806;53.548;9.964;2022-08-19T09:33:22;21.80;99.90
28614;DHT22;15806;53.548;9.964;2022-08-19T09:35:03;21.80;99.90
28614;DHT22;15806;53.548;9.964;2022-08-19T09:36:44;21.80;99.90
28614;DHT22;15806;53.548;9.964;2022-08-19T09:38:24;21.80;99.90
28614;DHT22;15806;53.548;9.964;2022-08-19T09:40:05;21.70;99.90
28614;DHT22;15806;53.548;9.964;2022-08-19T09:41:46;21.60;99.90
28614;DHT22;15806;53.548;9.964;2022-08-19T09:43:27;21.70;99.90
28614;DHT22;15806;53.548;9.964;2022-08-19T09:45:07;21.80;99.90
28614;DHT22;15806;53.548;9.964;2022-08-19T09:46:48;21.90;99.90
28614;DHT22;15806;53.548;9.964;2022-08-19T09:48:29;21.90;99.90
28614;DHT22;15806;53.548;9.964;2022-08-19T09:50:12;21.90;99.90
28614;DHT22;15806;53.548;9.964;2022-08-19T09:51:53;21.90;99.90
28614;DHT22;15806;53.548;9.964;2022-08-19T09:53:37;21.80;99.90
28614;DHT22;15806;53.548;9.964;2022-08-19T09:55:18;21.80;99.90
28614;DHT22;15806;53.548;9.964;2022-08-19T09:56:59;21.90;99.90
28614;DHT22;15806;53.548;9.964;2022-08-19T09:58:40;21.90;99.90
28614;DHT22;15806;53.548;9.964;2022-08-19T10:00:20;21.90;99.90
28614;DHT22;15806;53.548;9.964;2022-08-19T10:02:01;21.90;99.90
28614;DHT22;15806;53.548;9.964;2022-08-19T10:03:42;21.80;99.90
28614;DHT22;15806;53.548;9.964;2022-08-19T10:05:22;21.90;99.90
28614;DHT22;15806;53.548;9.964;2022-08-19T10:07:03;21.90;99.90
28614;DHT22;15806;53.548;9.964;2022-08-19T10:08:44;21.90;99.90
28614;DHT22;15806;53.548;9.964;2022-08-19T10:10:25;21.90;99.90
28614;DHT22;15806;53.548;9.964;2022-08-19T10:12:06;21.90;99.90
28614;DHT22;15806;53.548;9.964;2022-08-19T10:13:47;22.00;99.90
28614;DHT22;15806;53.548;9.964;2022-08-19T10:15:28;21.90;99.90
28614;DHT22;15806;53.548;9.964;2022-08-19T10:17:08;22.00;99.90
28614;DHT22;15806;53.548;9.964;2022-08-19T10:18:50;21.90;99.90
28614;DHT22;15806;53.548;9.964;2022-08-19T10:20:31;22.00;99.90
28614;DHT22;15806;53.548;9.964;2022-08-19T10:22:11;22.10;99.90
28614;DHT22;15806;53.548;9.964;2022-08-19T10:23:54;22.10;99.90
28614;DHT22;15806;53.548;9.964;2022-08-19T10:25:35;22.10;99.90
28614;DHT22;15806;53.548;9.964;2022-08-19T10:27:16;22.10;99.90
28614;DHT22;15806;53.548;9.964;2022-08-19T10:28:57;22.10;99.90
28614;DHT22;15806;53.548;9.964;2022-08-19T10:30:38;22.20;99.90
28614;DHT22;15806;53.548;9.964;2022-08-19T10:32:19;22.20;99.90
28614;DHT22;15806;53.548;9.964;2022-08-19T10:34:00;22.30;99.90
28614;DHT22;15806;53.548;9.964;2022-08-19T10:35:41;22.30;99.90
28614;DHT22;15806;53.548;9.964;2022-08-19T10:37:21;22.30;99.90
28614;DHT22;15806;53.548;9.964;2022-08-19T10:39:06;22.30;99.90
28614;DHT22;15806;53.548;9.964;2022-08-19T10:41:22;22.30;99.90
28614;DHT22;15806;53.548;9.964;2022-08-19T10:43:03;22.20;99.90
28614;DHT22;15806;53.548;9.964;2022-08-19T10:44:44;22.20;99.90
28614;DHT22;15806;53.548;9.964;2022-08-19T10:46:26;22.20;99.90
28614;DHT22;15806;53.548;9.964;2022-08-19T10:48:07;22.20;99.90
28614;DHT22;15806;53.548;9.964;2022-08-19T10:49:49;22.10;99.90
28614;DHT22;15806;53.548;9.964;2022-08-19T10:51:30;22.10;99.90
28614;DHT22;15806;53.548;9.964;2022-08-19T10:53:10;22.10;99.90
28614;DHT22;15806;53.548;9.964;2022-08-19T10:54:51;22.10;99.90